METAR Data
IDs: Format: Raw Decoded Include TAF

Data at: 0047 UTC 05 Jul 2022

METAR for:KJWY (Midlothian/Mid-Way R, TX, US)
Text:KJWY 050035Z AUTO 17009KT 10SM CLR 36/17 A2995 RMK AO2 T03580170
Temperature: 35.8°C ( 96°F)
Dewpoint: 17.0°C ( 63°F) [RH = 33%]
Pressure (altimeter):29.95 inches Hg (1014.3 mb)
Winds:from the S (170 degrees) at 10 MPH (9 knots; 4.6 m/s)
Visibility:10 or more sm (16+ km)
Ceiling:at least 12,000 feet AGL
Clouds:sky clear below 12,000 feet AGL
QC Flag:automated observation with no human augmentation
Text:KJWY 050015Z AUTO 18011G18KT 10SM CLR 36/17 A2995 RMK AO2 T03630169
Temperature: 36.3°C ( 97°F)
Dewpoint: 16.9°C ( 62°F) [RH = 32%]
Pressure (altimeter):29.95 inches Hg (1014.3 mb)
Winds:from the S (180 degrees) at 13 MPH (11 knots; 5.7 m/s) gusting to 21 MPH (18 knots; 9.3 m/s)
Visibility:10 or more sm (16+ km)
Ceiling:at least 12,000 feet AGL
Clouds:sky clear below 12,000 feet AGL
QC Flag:automated observation with no human augmentation
Text:KJWY 042355Z AUTO 18008G15KT 10SM CLR 36/16 A2995 RMK AO2 T03630162 10379 20342
Temperature: 36.3°C ( 97°F)
Dewpoint: 16.2°C ( 61°F) [RH = 31%]
Pressure (altimeter):29.95 inches Hg (1014.3 mb)
Winds:from the S (180 degrees) at 9 MPH (8 knots; 4.1 m/s) gusting to 17 MPH (15 knots; 7.7 m/s)
Visibility:10 or more sm (16+ km)
Ceiling:at least 12,000 feet AGL
Clouds:sky clear below 12,000 feet AGL
QC Flag:automated observation with no human augmentation
Text:KJWY 042335Z AUTO 15011G19KT 10SM CLR 37/17 A2996 RMK AO2 T03700169
Temperature: 37.0°C ( 99°F)
Dewpoint: 16.9°C ( 62°F) [RH = 31%]
Pressure (altimeter):29.96 inches Hg (1014.6 mb)
Winds:from the SSE (150 degrees) at 13 MPH (11 knots; 5.7 m/s) gusting to 22 MPH (19 knots; 9.8 m/s)
Visibility:10 or more sm (16+ km)
Ceiling:at least 12,000 feet AGL
Clouds:sky clear below 12,000 feet AGL
QC Flag:automated observation with no human augmentation
Text:KJWY 042315Z AUTO 17012G18KT 10SM CLR 37/16 A2996 RMK AO2 T03700163
Temperature: 37.0°C ( 99°F)
Dewpoint: 16.3°C ( 61°F) [RH = 30%]
Pressure (altimeter):29.96 inches Hg (1014.6 mb)
Winds:from the S (170 degrees) at 14 MPH (12 knots; 6.2 m/s) gusting to 21 MPH (18 knots; 9.3 m/s)
Visibility:10 or more sm (16+ km)
Ceiling:at least 12,000 feet AGL
Clouds:sky clear below 12,000 feet AGL
QC Flag:automated observation with no human augmentation
Text:KJWY 042255Z AUTO 18014G17KT 10SM CLR 37/17 A2996 RMK AO2 T03740168
Temperature: 37.4°C ( 99°F)
Dewpoint: 16.8°C ( 62°F) [RH = 30%]
Pressure (altimeter):29.96 inches Hg (1014.6 mb)
Winds:from the S (180 degrees) at 16 MPH (14 knots; 7.2 m/s) gusting to 20 MPH (17 knots; 8.7 m/s)
Visibility:10 or more sm (16+ km)
Ceiling:at least 12,000 feet AGL
Clouds:sky clear below 12,000 feet AGL
QC Flag:automated observation with no human augmentation
Text:KJWY 042235Z AUTO 19014G21KT 10SM CLR 37/17 A2997 RMK AO2 T03730165
Temperature: 37.3°C ( 99°F)
Dewpoint: 16.5°C ( 62°F) [RH = 29%]
Pressure (altimeter):29.97 inches Hg (1015.0 mb)
Winds:from the S (190 degrees) at 16 MPH (14 knots; 7.2 m/s) gusting to 24 MPH (21 knots; 10.8 m/s)
Visibility:10 or more sm (16+ km)
Ceiling:at least 12,000 feet AGL
Clouds:sky clear below 12,000 feet AGL
QC Flag:automated observation with no human augmentation
Text:KJWY 042215Z AUTO 18011G16KT 10SM CLR 37/16 A2997 RMK AO2 T03740164
Temperature: 37.4°C ( 99°F)
Dewpoint: 16.4°C ( 62°F) [RH = 29%]
Pressure (altimeter):29.97 inches Hg (1015.0 mb)
Winds:from the S (180 degrees) at 13 MPH (11 knots; 5.7 m/s) gusting to 18 MPH (16 knots; 8.2 m/s)
Visibility:10 or more sm (16+ km)
Ceiling:at least 12,000 feet AGL
Clouds:sky clear below 12,000 feet AGL
QC Flag:automated observation with no human augmentation
Text:KJWY 042155Z AUTO 20012G17KT 10SM CLR 38/17 A2998 RMK AO2 T03750167
Temperature: 37.5°C (100°F)
Dewpoint: 16.7°C ( 62°F) [RH = 29%]
Pressure (altimeter):29.98 inches Hg (1015.3 mb)
Winds:from the SSW (200 degrees) at 14 MPH (12 knots; 6.2 m/s) gusting to 20 MPH (17 knots; 8.7 m/s)
Visibility:10 or more sm (16+ km)
Ceiling:at least 12,000 feet AGL
Clouds:sky clear below 12,000 feet AGL
QC Flag:automated observation with no human augmentation
Text:KJWY 042135Z AUTO 19014G22KT 10SM CLR 38/17 A2998 RMK AO2 T03780171
Temperature: 37.8°C (100°F)
Dewpoint: 17.1°C ( 63°F) [RH = 30%]
Pressure (altimeter):29.98 inches Hg (1015.3 mb)
Winds:from the S (190 degrees) at 16 MPH (14 knots; 7.2 m/s) gusting to 25 MPH (22 knots; 11.3 m/s)
Visibility:10 or more sm (16+ km)
Ceiling:at least 12,000 feet AGL
Clouds:sky clear below 12,000 feet AGL
QC Flag:automated observation with no human augmentation
Text:KJWY 042115Z AUTO 19015G19KT 10SM SCT120 38/17 A2999 RMK AO2 T03760169
Temperature: 37.6°C (100°F)
Dewpoint: 16.9°C ( 62°F) [RH = 30%]
Pressure (altimeter):29.99 inches Hg (1015.7 mb)
Winds:from the S (190 degrees) at 17 MPH (15 knots; 7.7 m/s) gusting to 22 MPH (19 knots; 9.8 m/s)
Visibility:10 or more sm (16+ km)
Ceiling:at least 12,000 feet AGL
Clouds: scattered clouds at 12000 feet AGL
QC Flag:automated observation with no human augmentation
Text:KJWY 042055Z AUTO 17012G18KT 10SM CLR 37/17 A3000 RMK AO2 T03720173
Temperature: 37.2°C ( 99°F)
Dewpoint: 17.3°C ( 63°F) [RH = 31%]
Pressure (altimeter):30.00 inches Hg (1016.0 mb)
Winds:from the S (170 degrees) at 14 MPH (12 knots; 6.2 m/s) gusting to 21 MPH (18 knots; 9.3 m/s)
Visibility:10 or more sm (16+ km)
Ceiling:at least 12,000 feet AGL
Clouds:sky clear below 12,000 feet AGL
QC Flag:automated observation with no human augmentation
Text:KJWY 042035Z AUTO 17013G17KT 130V200 10SM CLR 37/17 A3000 RMK AO2 T03700172
Temperature: 37.0°C ( 99°F)
Dewpoint: 17.2°C ( 63°F) [RH = 31%]
Pressure (altimeter):30.00 inches Hg (1016.0 mb)
Winds:from the S (170 degrees) at 15 MPH (13 knots; 6.7 m/s) gusting to 20 MPH (17 knots; 8.7 m/s)
Visibility:10 or more sm (16+ km)
Ceiling:at least 12,000 feet AGL
Clouds:sky clear below 12,000 feet AGL
QC Flag:automated observation with no human augmentation
Text:KJWY 042015Z AUTO 20013G18KT 10SM CLR 37/17 A3001 RMK AO2 T03670174
Temperature: 36.7°C ( 98°F)
Dewpoint: 17.4°C ( 63°F) [RH = 32%]
Pressure (altimeter):30.01 inches Hg (1016.3 mb)
Winds:from the SSW (200 degrees) at 15 MPH (13 knots; 6.7 m/s) gusting to 21 MPH (18 knots; 9.3 m/s)
Visibility:10 or more sm (16+ km)
Ceiling:at least 12,000 feet AGL
Clouds:sky clear below 12,000 feet AGL
QC Flag:automated observation with no human augmentation
Text:KJWY 041955Z AUTO 16013G17KT 10SM SCT110 36/18 A3001 RMK AO2 T03620178
Temperature: 36.2°C ( 97°F)
Dewpoint: 17.8°C ( 64°F) [RH = 34%]
Pressure (altimeter):30.01 inches Hg (1016.3 mb)
Winds:from the SSE (160 degrees) at 15 MPH (13 knots; 6.7 m/s) gusting to 20 MPH (17 knots; 8.7 m/s)
Visibility:10 or more sm (16+ km)
Ceiling:at least 12,000 feet AGL
Clouds: scattered clouds at 11000 feet AGL
QC Flag:automated observation with no human augmentation
Text:KJWY 041935Z AUTO 17008G14KT 10SM SCT110 36/18 A3002 RMK AO2 T03630182
Temperature: 36.3°C ( 97°F)
Dewpoint: 18.2°C ( 65°F) [RH = 35%]
Pressure (altimeter):30.02 inches Hg (1016.7 mb)
Winds:from the S (170 degrees) at 9 MPH (8 knots; 4.1 m/s) gusting to 16 MPH (14 knots; 7.2 m/s)
Visibility:10 or more sm (16+ km)
Ceiling:at least 12,000 feet AGL
Clouds: scattered clouds at 11000 feet AGL
QC Flag:automated observation with no human augmentation
Text:KJWY 041915Z AUTO 16009G16KT 10SM BKN110 36/18 A3003 RMK AO2 T03600182
Temperature: 36.0°C ( 97°F)
Dewpoint: 18.2°C ( 65°F) [RH = 35%]
Pressure (altimeter):30.03 inches Hg (1017.0 mb)
Winds:from the SSE (160 degrees) at 10 MPH (9 knots; 4.6 m/s) gusting to 18 MPH (16 knots; 8.2 m/s)
Visibility:10 or more sm (16+ km)
Ceiling:11000 feet AGL
Clouds: broken clouds at 11000 feet AGL
QC Flag:automated observation with no human augmentation
Text:KJWY 041855Z AUTO 17012G17KT 10SM OVC110 35/19 A3004 RMK AO2 T03520186
Temperature: 35.2°C ( 95°F)
Dewpoint: 18.6°C ( 65°F) [RH = 38%]
Pressure (altimeter):30.04 inches Hg (1017.4 mb)
Winds:from the S (170 degrees) at 14 MPH (12 knots; 6.2 m/s) gusting to 20 MPH (17 knots; 8.7 m/s)
Visibility:10 or more sm (16+ km)
Ceiling:11000 feet AGL
Clouds: overcast cloud deck at 11000 feet AGL
QC Flag:automated observation with no human augmentation
Text:KJWY 041835Z AUTO 16007KT 10SM OVC110 35/19 A3004 RMK AO2 T03530190
Temperature: 35.3°C ( 96°F)
Dewpoint: 19.0°C ( 66°F) [RH = 38%]
Pressure (altimeter):30.04 inches Hg (1017.4 mb)
Winds:from the SSE (160 degrees) at 8 MPH (7 knots; 3.6 m/s)
Visibility:10 or more sm (16+ km)
Ceiling:11000 feet AGL
Clouds: overcast cloud deck at 11000 feet AGL
QC Flag:automated observation with no human augmentation
Text:KJWY 041815Z AUTO 17013G18KT 10SM BKN110 35/19 A3005 RMK AO2 T03470187
Temperature: 34.7°C ( 94°F)
Dewpoint: 18.7°C ( 66°F) [RH = 39%]
Pressure (altimeter):30.05 inches Hg (1017.7 mb)
Winds:from the S (170 degrees) at 15 MPH (13 knots; 6.7 m/s) gusting to 21 MPH (18 knots; 9.3 m/s)
Visibility:10 or more sm (16+ km)
Ceiling:11000 feet AGL
Clouds: broken clouds at 11000 feet AGL
QC Flag:automated observation with no human augmentation
Text:KJWY 041755Z AUTO 18008G19KT 10SM SCT110 34/19 A3005 RMK AO2 T03410189 10342 20245
Temperature: 34.1°C ( 93°F)
Dewpoint: 18.9°C ( 66°F) [RH = 41%]
Pressure (altimeter):30.05 inches Hg (1017.7 mb)
Winds:from the S (180 degrees) at 9 MPH (8 knots; 4.1 m/s) gusting to 22 MPH (19 knots; 9.8 m/s)
Visibility:10 or more sm (16+ km)
Ceiling:at least 12,000 feet AGL
Clouds: scattered clouds at 11000 feet AGL
QC Flag:automated observation with no human augmentation
Text:KJWY 041735Z AUTO 17010KT 10SM CLR 34/19 A3006 RMK AO2 T03410190
Temperature: 34.1°C ( 93°F)
Dewpoint: 19.0°C ( 66°F) [RH = 41%]
Pressure (altimeter):30.06 inches Hg (1018.0 mb)
Winds:from the S (170 degrees) at 12 MPH (10 knots; 5.1 m/s)
Visibility:10 or more sm (16+ km)
Ceiling:at least 12,000 feet AGL
Clouds:sky clear below 12,000 feet AGL
QC Flag:automated observation with no human augmentation
Text:KJWY 041715Z AUTO 20010G14KT 10SM CLR 34/20 A3006 RMK AO2 T03360195
Temperature: 33.6°C ( 92°F)
Dewpoint: 19.5°C ( 67°F) [RH = 44%]
Pressure (altimeter):30.06 inches Hg (1018.0 mb)
Winds:from the SSW (200 degrees) at 12 MPH (10 knots; 5.1 m/s) gusting to 16 MPH (14 knots; 7.2 m/s)
Visibility:10 or more sm (16+ km)
Ceiling:at least 12,000 feet AGL
Clouds:sky clear below 12,000 feet AGL
QC Flag:automated observation with no human augmentation
Text:KJWY 041655Z AUTO 20009KT 160V230 10SM CLR 33/20 A3007 RMK AO2 T03300202
Temperature: 33.0°C ( 91°F)
Dewpoint: 20.2°C ( 68°F) [RH = 47%]
Pressure (altimeter):30.07 inches Hg (1018.4 mb)
Winds:from the SSW (200 degrees) at 10 MPH (9 knots; 4.6 m/s)
Visibility:10 or more sm (16+ km)
Ceiling:at least 12,000 feet AGL
Clouds:sky clear below 12,000 feet AGL
QC Flag:automated observation with no human augmentation
Text:KJWY 041635Z AUTO 17010G14KT 10SM CLR 33/21 A3007 RMK AO2 T03270206
Temperature: 32.7°C ( 91°F)
Dewpoint: 20.6°C ( 69°F) [RH = 49%]
Pressure (altimeter):30.07 inches Hg (1018.4 mb)
Winds:from the S (170 degrees) at 12 MPH (10 knots; 5.1 m/s) gusting to 16 MPH (14 knots; 7.2 m/s)
Visibility:10 or more sm (16+ km)
Ceiling:at least 12,000 feet AGL
Clouds:sky clear below 12,000 feet AGL
QC Flag:automated observation with no human augmentation
Text:KJWY 041615Z AUTO 22008KT 10SM CLR 32/21 A3007 RMK AO2 T03170207
Temperature: 31.7°C ( 89°F)
Dewpoint: 20.7°C ( 69°F) [RH = 52%]
Pressure (altimeter):30.07 inches Hg (1018.4 mb)
Winds:from the SW (220 degrees) at 9 MPH (8 knots; 4.1 m/s)
Visibility:10 or more sm (16+ km)
Ceiling:at least 12,000 feet AGL
Clouds:sky clear below 12,000 feet AGL
QC Flag:automated observation with no human augmentation
Text:KJWY 041555Z AUTO 20009KT 160V220 10SM CLR 32/21 A3007 RMK AO2 T03190207
Temperature: 31.9°C ( 89°F)
Dewpoint: 20.7°C ( 69°F) [RH = 52%]
Pressure (altimeter):30.07 inches Hg (1018.4 mb)
Winds:from the SSW (200 degrees) at 10 MPH (9 knots; 4.6 m/s)
Visibility:10 or more sm (16+ km)
Ceiling:at least 12,000 feet AGL
Clouds:sky clear below 12,000 feet AGL
QC Flag:automated observation with no human augmentation
Text:KJWY 041535Z AUTO 20011G17KT 10SM CLR 31/20 A3008 RMK AO2 T03110201
Temperature: 31.1°C ( 88°F)
Dewpoint: 20.1°C ( 68°F) [RH = 52%]
Pressure (altimeter):30.08 inches Hg (1018.7 mb)
Winds:from the SSW (200 degrees) at 13 MPH (11 knots; 5.7 m/s) gusting to 20 MPH (17 knots; 8.7 m/s)
Visibility:10 or more sm (16+ km)
Ceiling:at least 12,000 feet AGL
Clouds:sky clear below 12,000 feet AGL
QC Flag:automated observation with no human augmentation
Text:KJWY 041515Z AUTO 19008KT 10SM CLR 31/21 A3008 RMK AO2 T03070205
Temperature: 30.7°C ( 87°F)
Dewpoint: 20.5°C ( 69°F) [RH = 55%]
Pressure (altimeter):30.08 inches Hg (1018.7 mb)
Winds:from the S (190 degrees) at 9 MPH (8 knots; 4.1 m/s)
Visibility:10 or more sm (16+ km)
Ceiling:at least 12,000 feet AGL
Clouds:sky clear below 12,000 feet AGL
QC Flag:automated observation with no human augmentation
Text:KJWY 041455Z AUTO 21009G14KT 170V230 10SM CLR 30/21 A3008 RMK AO2 T02980205
Temperature: 29.8°C ( 86°F)
Dewpoint: 20.5°C ( 69°F) [RH = 57%]
Pressure (altimeter):30.08 inches Hg (1018.7 mb)
Winds:from the SSW (210 degrees) at 10 MPH (9 knots; 4.6 m/s) gusting to 16 MPH (14 knots; 7.2 m/s)
Visibility:10 or more sm (16+ km)
Ceiling:at least 12,000 feet AGL
Clouds:sky clear below 12,000 feet AGL
QC Flag:automated observation with no human augmentation
Text:KJWY 041435Z AUTO 21011KT 10SM CLR 29/21 A3009 RMK AO2 T02940211
Temperature: 29.4°C ( 85°F)
Dewpoint: 21.1°C ( 70°F) [RH = 61%]
Pressure (altimeter):30.09 inches Hg (1019.0 mb)
Winds:from the SSW (210 degrees) at 13 MPH (11 knots; 5.7 m/s)
Visibility:10 or more sm (16+ km)
Ceiling:at least 12,000 feet AGL
Clouds:sky clear below 12,000 feet AGL
QC Flag:automated observation with no human augmentation
Text:KJWY 041415Z AUTO 23013KT 10SM CLR 29/22 A3008 RMK AO2 T02890215
Temperature: 28.9°C ( 84°F)
Dewpoint: 21.5°C ( 71°F) [RH = 64%]
Pressure (altimeter):30.08 inches Hg (1018.7 mb)
Winds:from the SW (230 degrees) at 15 MPH (13 knots; 6.7 m/s)
Visibility:10 or more sm (16+ km)
Ceiling:at least 12,000 feet AGL
Clouds:sky clear below 12,000 feet AGL
QC Flag:automated observation with no human augmentation
Text:KJWY 041355Z AUTO 23007KT 10SM CLR 28/22 A3008 RMK AO2 T02810223
Temperature: 28.1°C ( 83°F)
Dewpoint: 22.3°C ( 72°F) [RH = 71%]
Pressure (altimeter):30.08 inches Hg (1018.7 mb)
Winds:from the SW (230 degrees) at 8 MPH (7 knots; 3.6 m/s)
Visibility:10 or more sm (16+ km)
Ceiling:at least 12,000 feet AGL
Clouds:sky clear below 12,000 feet AGL
QC Flag:automated observation with no human augmentation
Text:KJWY 041335Z AUTO 22008KT 10SM SCT100 SCT120 28/22 A3008 RMK AO2 T02750222
Temperature: 27.5°C ( 82°F)
Dewpoint: 22.2°C ( 72°F) [RH = 73%]
Pressure (altimeter):30.08 inches Hg (1018.7 mb)
Winds:from the SW (220 degrees) at 9 MPH (8 knots; 4.1 m/s)
Visibility:10 or more sm (16+ km)
Ceiling:at least 12,000 feet AGL
Clouds: scattered clouds at 10000 feet AGL, scattered clouds at 12000 feet AGL
QC Flag:automated observation with no human augmentation
Text:KJWY 041315Z AUTO 20009KT 10SM OVC100 27/22 A3006 RMK AO2 T02670222
Temperature: 26.7°C ( 80°F)
Dewpoint: 22.2°C ( 72°F) [RH = 76%]
Pressure (altimeter):30.06 inches Hg (1018.0 mb)
Winds:from the SSW (200 degrees) at 10 MPH (9 knots; 4.6 m/s)
Visibility:10 or more sm (16+ km)
Ceiling:10000 feet AGL
Clouds: overcast cloud deck at 10000 feet AGL
QC Flag:automated observation with no human augmentation
Text:KJWY 041255Z AUTO 20007KT 10SM OVC100 26/22 A3006 RMK AO2 T02630220
Temperature: 26.3°C ( 79°F)
Dewpoint: 22.0°C ( 72°F) [RH = 77%]
Pressure (altimeter):30.06 inches Hg (1018.0 mb)
Winds:from the SSW (200 degrees) at 8 MPH (7 knots; 3.6 m/s)
Visibility:10 or more sm (16+ km)
Ceiling:10000 feet AGL
Clouds: overcast cloud deck at 10000 feet AGL
QC Flag:automated observation with no human augmentation
Text:KJWY 041235Z AUTO 20006KT 10SM BKN110 26/22 A3005 RMK AO2 T02560218
Temperature: 25.6°C ( 78°F)
Dewpoint: 21.8°C ( 71°F) [RH = 80%]
Pressure (altimeter):30.05 inches Hg (1017.7 mb)
Winds:from the SSW (200 degrees) at 7 MPH (6 knots; 3.1 m/s)
Visibility:10 or more sm (16+ km)
Ceiling:11000 feet AGL
Clouds: broken clouds at 11000 feet AGL
QC Flag:automated observation with no human augmentation
Text:KJWY 041215Z AUTO 19004KT 10SM CLR 25/22 A3005 RMK AO2 T02490215
Temperature: 24.9°C ( 77°F)
Dewpoint: 21.5°C ( 71°F) [RH = 81%]
Pressure (altimeter):30.05 inches Hg (1017.7 mb)
Winds:from the S (190 degrees) at 5 MPH (4 knots; 2.1 m/s)
Visibility:10 or more sm (16+ km)
Ceiling:at least 12,000 feet AGL
Clouds:sky clear below 12,000 feet AGL
QC Flag:automated observation with no human augmentation
Text:KJWY 041155Z AUTO 00000KT 10SM CLR 25/21 A3005 RMK AO2 T02450210 10301 20242
Temperature: 24.5°C ( 76°F)
Dewpoint: 21.0°C ( 70°F) [RH = 81%]
Pressure (altimeter):30.05 inches Hg (1017.7 mb)
Winds:calm
Visibility:10 or more sm (16+ km)
Ceiling:at least 12,000 feet AGL
Clouds:sky clear below 12,000 feet AGL
QC Flag:automated observation with no human augmentation
Text:KJWY 041135Z AUTO 20003KT 10SM CLR 24/21 A3004 RMK AO2 T02440208
Temperature: 24.4°C ( 76°F)
Dewpoint: 20.8°C ( 69°F) [RH = 80%]
Pressure (altimeter):30.04 inches Hg (1017.4 mb)
Winds:from the SSW (200 degrees) at 3 MPH (3 knots; 1.5 m/s)
Visibility:10 or more sm (16+ km)
Ceiling:at least 12,000 feet AGL
Clouds:sky clear below 12,000 feet AGL
QC Flag:automated observation with no human augmentation
Text:KJWY 041115Z AUTO 20003KT 10SM CLR 25/21 A3004 RMK AO2 T02470206
Temperature: 24.7°C ( 76°F)
Dewpoint: 20.6°C ( 69°F) [RH = 78%]
Pressure (altimeter):30.04 inches Hg (1017.4 mb)
Winds:from the SSW (200 degrees) at 3 MPH (3 knots; 1.5 m/s)
Visibility:10 or more sm (16+ km)
Ceiling:at least 12,000 feet AGL
Clouds:sky clear below 12,000 feet AGL
QC Flag:automated observation with no human augmentation
Text:KJWY 041055Z AUTO 19004KT 10SM CLR 25/21 A3003 RMK AO2 T02530207
Temperature: 25.3°C ( 78°F)
Dewpoint: 20.7°C ( 69°F) [RH = 76%]
Pressure (altimeter):30.03 inches Hg (1017.0 mb)
Winds:from the S (190 degrees) at 5 MPH (4 knots; 2.1 m/s)
Visibility:10 or more sm (16+ km)
Ceiling:at least 12,000 feet AGL
Clouds:sky clear below 12,000 feet AGL
QC Flag:automated observation with no human augmentation
Text:KJWY 041035Z AUTO 18003KT 10SM CLR 26/21 A3003 RMK AO2 T02570205
Temperature: 25.7°C ( 78°F)
Dewpoint: 20.5°C ( 69°F) [RH = 73%]
Pressure (altimeter):30.03 inches Hg (1017.0 mb)
Winds:from the S (180 degrees) at 3 MPH (3 knots; 1.5 m/s)
Visibility:10 or more sm (16+ km)
Ceiling:at least 12,000 feet AGL
Clouds:sky clear below 12,000 feet AGL
QC Flag:automated observation with no human augmentation
Text:KJWY 041015Z AUTO 18004KT 10SM CLR 26/21 A3003 RMK AO2 T02580205
Temperature: 25.8°C ( 78°F)
Dewpoint: 20.5°C ( 69°F) [RH = 73%]
Pressure (altimeter):30.03 inches Hg (1017.0 mb)
Winds:from the S (180 degrees) at 5 MPH (4 knots; 2.1 m/s)
Visibility:10 or more sm (16+ km)
Ceiling:at least 12,000 feet AGL
Clouds:sky clear below 12,000 feet AGL
QC Flag:automated observation with no human augmentation
Text:KJWY 040955Z AUTO 19005KT 10SM CLR 27/20 A3003 RMK AO2 T02650203
Temperature: 26.5°C ( 80°F)
Dewpoint: 20.3°C ( 69°F) [RH = 69%]
Pressure (altimeter):30.03 inches Hg (1017.0 mb)
Winds:from the S (190 degrees) at 6 MPH (5 knots; 2.6 m/s)
Visibility:10 or more sm (16+ km)
Ceiling:at least 12,000 feet AGL
Clouds:sky clear below 12,000 feet AGL
QC Flag:automated observation with no human augmentation
Text:KJWY 040935Z AUTO 18006KT 10SM CLR 27/20 A3002 RMK AO2 T02680202
Temperature: 26.8°C ( 80°F)
Dewpoint: 20.2°C ( 68°F) [RH = 67%]
Pressure (altimeter):30.02 inches Hg (1016.7 mb)
Winds:from the S (180 degrees) at 7 MPH (6 knots; 3.1 m/s)
Visibility:10 or more sm (16+ km)
Ceiling:at least 12,000 feet AGL
Clouds:sky clear below 12,000 feet AGL
QC Flag:automated observation with no human augmentation
Text:KJWY 040915Z AUTO 19008KT 10SM CLR 27/20 A3002 RMK AO2 T02710200
Temperature: 27.1°C ( 81°F)
Dewpoint: 20.0°C ( 68°F) [RH = 65%]
Pressure (altimeter):30.02 inches Hg (1016.7 mb)
Winds:from the S (190 degrees) at 9 MPH (8 knots; 4.1 m/s)
Visibility:10 or more sm (16+ km)
Ceiling:at least 12,000 feet AGL
Clouds:sky clear below 12,000 feet AGL
QC Flag:automated observation with no human augmentation
Text:KJWY 040855Z AUTO 20007KT 10SM CLR 27/20 A3001 RMK AO2 T02720198
Temperature: 27.2°C ( 81°F)
Dewpoint: 19.8°C ( 68°F) [RH = 64%]
Pressure (altimeter):30.01 inches Hg (1016.3 mb)
Winds:from the SSW (200 degrees) at 8 MPH (7 knots; 3.6 m/s)
Visibility:10 or more sm (16+ km)
Ceiling:at least 12,000 feet AGL
Clouds:sky clear below 12,000 feet AGL
QC Flag:automated observation with no human augmentation
Text:KJWY 040835Z AUTO 20007KT 10SM CLR 28/20 A3001 RMK AO2 T02790197
Temperature: 27.9°C ( 82°F)
Dewpoint: 19.7°C ( 67°F) [RH = 61%]
Pressure (altimeter):30.01 inches Hg (1016.3 mb)
Winds:from the SSW (200 degrees) at 8 MPH (7 knots; 3.6 m/s)
Visibility:10 or more sm (16+ km)
Ceiling:at least 12,000 feet AGL
Clouds:sky clear below 12,000 feet AGL
QC Flag:automated observation with no human augmentation
Text:KJWY 040815Z AUTO 19011G17KT 10SM CLR 28/20 A3001 RMK AO2 T02830196
Temperature: 28.3°C ( 83°F)
Dewpoint: 19.6°C ( 67°F) [RH = 59%]
Pressure (altimeter):30.01 inches Hg (1016.3 mb)
Winds:from the S (190 degrees) at 13 MPH (11 knots; 5.7 m/s) gusting to 20 MPH (17 knots; 8.7 m/s)
Visibility:10 or more sm (16+ km)
Ceiling:at least 12,000 feet AGL
Clouds:sky clear below 12,000 feet AGL
QC Flag:automated observation with no human augmentation
Text:KJWY 040755Z AUTO 19011KT 10SM CLR 29/20 A3001 RMK AO2 T02850197
Temperature: 28.5°C ( 83°F)
Dewpoint: 19.7°C ( 67°F) [RH = 59%]
Pressure (altimeter):30.01 inches Hg (1016.3 mb)
Winds:from the S (190 degrees) at 13 MPH (11 knots; 5.7 m/s)
Visibility:10 or more sm (16+ km)
Ceiling:at least 12,000 feet AGL
Clouds:sky clear below 12,000 feet AGL
QC Flag:automated observation with no human augmentation
Text:KJWY 040735Z AUTO 19008G16KT 10SM CLR 29/20 A3001 RMK AO2 T02900197
Temperature: 29.0°C ( 84°F)
Dewpoint: 19.7°C ( 67°F) [RH = 57%]
Pressure (altimeter):30.01 inches Hg (1016.3 mb)
Winds:from the S (190 degrees) at 9 MPH (8 knots; 4.1 m/s) gusting to 18 MPH (16 knots; 8.2 m/s)
Visibility:10 or more sm (16+ km)
Ceiling:at least 12,000 feet AGL
Clouds:sky clear below 12,000 feet AGL
QC Flag:automated observation with no human augmentation
Text:KJWY 040715Z AUTO 19011G17KT 10SM CLR 29/20 A3001 RMK AO2 T02920197
Temperature: 29.2°C ( 85°F)
Dewpoint: 19.7°C ( 67°F) [RH = 57%]
Pressure (altimeter):30.01 inches Hg (1016.3 mb)
Winds:from the S (190 degrees) at 13 MPH (11 knots; 5.7 m/s) gusting to 20 MPH (17 knots; 8.7 m/s)
Visibility:10 or more sm (16+ km)
Ceiling:at least 12,000 feet AGL
Clouds:sky clear below 12,000 feet AGL
QC Flag:automated observation with no human augmentation
Text:KJWY 040655Z AUTO 18011G16KT 10SM CLR 30/20 A3001 RMK AO2 T02970198
Temperature: 29.7°C ( 85°F)
Dewpoint: 19.8°C ( 68°F) [RH = 55%]
Pressure (altimeter):30.01 inches Hg (1016.3 mb)
Winds:from the S (180 degrees) at 13 MPH (11 knots; 5.7 m/s) gusting to 18 MPH (16 knots; 8.2 m/s)
Visibility:10 or more sm (16+ km)
Ceiling:at least 12,000 feet AGL
Clouds:sky clear below 12,000 feet AGL
QC Flag:automated observation with no human augmentation
Text:KJWY 040635Z AUTO 18009KT 10SM CLR 30/20 A3000 RMK AO2 T03000198
Temperature: 30.0°C ( 86°F)
Dewpoint: 19.8°C ( 68°F) [RH = 54%]
Pressure (altimeter):30.00 inches Hg (1016.0 mb)
Winds:from the S (180 degrees) at 10 MPH (9 knots; 4.6 m/s)
Visibility:10 or more sm (16+ km)
Ceiling:at least 12,000 feet AGL
Clouds:sky clear below 12,000 feet AGL
QC Flag:automated observation with no human augmentation
Text:KJWY 040615Z AUTO 17008KT 10SM CLR 30/20 A3000 RMK AO2 T03000200
Temperature: 30.0°C ( 86°F)
Dewpoint: 20.0°C ( 68°F) [RH = 55%]
Pressure (altimeter):30.00 inches Hg (1016.0 mb)
Winds:from the S (170 degrees) at 9 MPH (8 knots; 4.1 m/s)
Visibility:10 or more sm (16+ km)
Ceiling:at least 12,000 feet AGL
Clouds:sky clear below 12,000 feet AGL
QC Flag:automated observation with no human augmentation
Text:KJWY 040555Z AUTO 17008KT 10SM CLR 30/20 A3000 RMK AO2 T03000195 10374 20300 403870251
Temperature: 30.0°C ( 86°F)
Dewpoint: 19.5°C ( 67°F) [RH = 53%]
Pressure (altimeter):30.00 inches Hg (1016.0 mb)
Winds:from the S (170 degrees) at 9 MPH (8 knots; 4.1 m/s)
Visibility:10 or more sm (16+ km)
Ceiling:at least 12,000 feet AGL
Clouds:sky clear below 12,000 feet AGL
QC Flag:automated observation with no human augmentation
Text:KJWY 040535Z AUTO 16008KT 10SM CLR 30/19 A2999 RMK AO2 T03040193
Temperature: 30.4°C ( 87°F)
Dewpoint: 19.3°C ( 67°F) [RH = 52%]
Pressure (altimeter):29.99 inches Hg (1015.7 mb)
Winds:from the SSE (160 degrees) at 9 MPH (8 knots; 4.1 m/s)
Visibility:10 or more sm (16+ km)
Ceiling:at least 12,000 feet AGL
Clouds:sky clear below 12,000 feet AGL
QC Flag:automated observation with no human augmentation
Text:KJWY 040515Z AUTO 15007KT 10SM CLR 31/19 A3000 RMK AO2 T03070190
Temperature: 30.7°C ( 87°F)
Dewpoint: 19.0°C ( 66°F) [RH = 50%]
Pressure (altimeter):30.00 inches Hg (1016.0 mb)
Winds:from the SSE (150 degrees) at 8 MPH (7 knots; 3.6 m/s)
Visibility:10 or more sm (16+ km)
Ceiling:at least 12,000 feet AGL
Clouds:sky clear below 12,000 feet AGL
QC Flag:automated observation with no human augmentation
Text:KJWY 040455Z AUTO 16006KT 10SM CLR 31/19 A2999 RMK AO2 T03080185
Temperature: 30.8°C ( 87°F)
Dewpoint: 18.5°C ( 65°F) [RH = 48%]
Pressure (altimeter):29.99 inches Hg (1015.7 mb)
Winds:from the SSE (160 degrees) at 7 MPH (6 knots; 3.1 m/s)
Visibility:10 or more sm (16+ km)
Ceiling:at least 12,000 feet AGL
Clouds:sky clear below 12,000 feet AGL
QC Flag:automated observation with no human augmentation
Text:KJWY 040435Z AUTO 16005KT 10SM CLR 31/19 A2999 RMK AO2 T03110185
Temperature: 31.1°C ( 88°F)
Dewpoint: 18.5°C ( 65°F) [RH = 47%]
Pressure (altimeter):29.99 inches Hg (1015.7 mb)
Winds:from the SSE (160 degrees) at 6 MPH (5 knots; 2.6 m/s)
Visibility:10 or more sm (16+ km)
Ceiling:at least 12,000 feet AGL
Clouds:sky clear below 12,000 feet AGL
QC Flag:automated observation with no human augmentation
Text:KJWY 040415Z AUTO 16005KT 10SM CLR 31/19 A2999 RMK AO2 T03130185
Temperature: 31.3°C ( 88°F)
Dewpoint: 18.5°C ( 65°F) [RH = 47%]
Pressure (altimeter):29.99 inches Hg (1015.7 mb)
Winds:from the SSE (160 degrees) at 6 MPH (5 knots; 2.6 m/s)
Visibility:10 or more sm (16+ km)
Ceiling:at least 12,000 feet AGL
Clouds:sky clear below 12,000 feet AGL
QC Flag:automated observation with no human augmentation
Text:KJWY 040355Z AUTO 16006KT 10SM CLR 32/19 A2998 RMK AO2 T03170185
Temperature: 31.7°C ( 89°F)
Dewpoint: 18.5°C ( 65°F) [RH = 46%]
Pressure (altimeter):29.98 inches Hg (1015.3 mb)
Winds:from the SSE (160 degrees) at 7 MPH (6 knots; 3.1 m/s)
Visibility:10 or more sm (16+ km)
Ceiling:at least 12,000 feet AGL
Clouds:sky clear below 12,000 feet AGL
QC Flag:automated observation with no human augmentation
Text:KJWY 040335Z AUTO 16007KT 10SM CLR 32/19 A2997 RMK AO2 T03200185
Temperature: 32.0°C ( 90°F)
Dewpoint: 18.5°C ( 65°F) [RH = 45%]
Pressure (altimeter):29.97 inches Hg (1015.0 mb)
Winds:from the SSE (160 degrees) at 8 MPH (7 knots; 3.6 m/s)
Visibility:10 or more sm (16+ km)
Ceiling:at least 12,000 feet AGL
Clouds:sky clear below 12,000 feet AGL
QC Flag:automated observation with no human augmentation
Text:KJWY 040315Z AUTO 16006KT 10SM CLR 33/19 A2997 RMK AO2 T03250185
Temperature: 32.5°C ( 90°F)
Dewpoint: 18.5°C ( 65°F) [RH = 44%]
Pressure (altimeter):29.97 inches Hg (1015.0 mb)
Winds:from the SSE (160 degrees) at 7 MPH (6 knots; 3.1 m/s)
Visibility:10 or more sm (16+ km)
Ceiling:at least 12,000 feet AGL
Clouds:sky clear below 12,000 feet AGL
QC Flag:automated observation with no human augmentation
Text:KJWY 040255Z AUTO 15005KT 10SM CLR 33/18 A2997 RMK AO2 T03250180
Temperature: 32.5°C ( 90°F)
Dewpoint: 18.0°C ( 64°F) [RH = 42%]
Pressure (altimeter):29.97 inches Hg (1015.0 mb)
Winds:from the SSE (150 degrees) at 6 MPH (5 knots; 2.6 m/s)
Visibility:10 or more sm (16+ km)
Ceiling:at least 12,000 feet AGL
Clouds:sky clear below 12,000 feet AGL
QC Flag:automated observation with no human augmentation
Text:KJWY 040235Z AUTO 15005KT 10SM CLR 33/17 A2996 RMK AO2 T03260172
Temperature: 32.6°C ( 91°F)
Dewpoint: 17.2°C ( 63°F) [RH = 40%]
Pressure (altimeter):29.96 inches Hg (1014.6 mb)
Winds:from the SSE (150 degrees) at 6 MPH (5 knots; 2.6 m/s)
Visibility:10 or more sm (16+ km)
Ceiling:at least 12,000 feet AGL
Clouds:sky clear below 12,000 feet AGL
QC Flag:automated observation with no human augmentation
Text:KJWY 040215Z AUTO 16004KT 10SM CLR 33/17 A2996 RMK AO2 T03300171
Temperature: 33.0°C ( 91°F)
Dewpoint: 17.1°C ( 63°F) [RH = 39%]
Pressure (altimeter):29.96 inches Hg (1014.6 mb)
Winds:from the SSE (160 degrees) at 5 MPH (4 knots; 2.1 m/s)
Visibility:10 or more sm (16+ km)
Ceiling:at least 12,000 feet AGL
Clouds:sky clear below 12,000 feet AGL
QC Flag:automated observation with no human augmentation
Text:KJWY 040155Z AUTO 15003KT 10SM CLR 33/17 A2996 RMK AO2 T03330171
Temperature: 33.3°C ( 92°F)
Dewpoint: 17.1°C ( 63°F) [RH = 38%]
Pressure (altimeter):29.96 inches Hg (1014.6 mb)
Winds:from the SSE (150 degrees) at 3 MPH (3 knots; 1.5 m/s)
Visibility:10 or more sm (16+ km)
Ceiling:at least 12,000 feet AGL
Clouds:sky clear below 12,000 feet AGL
QC Flag:automated observation with no human augmentation
Text:KJWY 040135Z AUTO 17004KT 10SM CLR 35/17 A2995 RMK AO2 T03480171
Temperature: 34.8°C ( 95°F)
Dewpoint: 17.1°C ( 63°F) [RH = 35%]
Pressure (altimeter):29.95 inches Hg (1014.3 mb)
Winds:from the S (170 degrees) at 5 MPH (4 knots; 2.1 m/s)
Visibility:10 or more sm (16+ km)
Ceiling:at least 12,000 feet AGL
Clouds:sky clear below 12,000 feet AGL
QC Flag:automated observation with no human augmentation
Text:KJWY 040115Z AUTO 16006KT 10SM CLR 36/17 A2995 RMK AO2 T03570170
Temperature: 35.7°C ( 96°F)
Dewpoint: 17.0°C ( 63°F) [RH = 33%]
Pressure (altimeter):29.95 inches Hg (1014.3 mb)
Winds:from the SSE (160 degrees) at 7 MPH (6 knots; 3.1 m/s)
Visibility:10 or more sm (16+ km)
Ceiling:at least 12,000 feet AGL
Clouds:sky clear below 12,000 feet AGL
QC Flag:automated observation with no human augmentation
Text:KJWY 040055Z AUTO 16005KT 10SM CLR 36/17 A2995 RMK AO2 T03630170
Temperature: 36.3°C ( 97°F)
Dewpoint: 17.0°C ( 63°F) [RH = 32%]
Pressure (altimeter):29.95 inches Hg (1014.3 mb)
Winds:from the SSE (160 degrees) at 6 MPH (5 knots; 2.6 m/s)
Visibility:10 or more sm (16+ km)
Ceiling:at least 12,000 feet AGL
Clouds:sky clear below 12,000 feet AGL
QC Flag:automated observation with no human augmentation
Text:KJWY 040035Z AUTO 16005KT 10SM CLR 37/17 A2995 RMK AO2 T03670171
Temperature: 36.7°C ( 98°F)
Dewpoint: 17.1°C ( 63°F) [RH = 32%]
Pressure (altimeter):29.95 inches Hg (1014.3 mb)
Winds:from the SSE (160 degrees) at 6 MPH (5 knots; 2.6 m/s)
Visibility:10 or more sm (16+ km)
Ceiling:at least 12,000 feet AGL
Clouds:sky clear below 12,000 feet AGL
QC Flag:automated observation with no human augmentation
Text:KJWY 040015Z AUTO 19010KT 10SM CLR 37/18 A2995 RMK AO2 T03710175
Temperature: 37.1°C ( 99°F)
Dewpoint: 17.5°C ( 64°F) [RH = 32%]
Pressure (altimeter):29.95 inches Hg (1014.3 mb)
Winds:from the S (190 degrees) at 12 MPH (10 knots; 5.1 m/s)
Visibility:10 or more sm (16+ km)
Ceiling:at least 12,000 feet AGL
Clouds:sky clear below 12,000 feet AGL
QC Flag:automated observation with no human augmentation
Text:KJWY 032355Z AUTO 19009KT 10SM SCT100 37/18 A2995 RMK AO2 T03740175 10387 20353
Temperature: 37.4°C ( 99°F)
Dewpoint: 17.5°C ( 64°F) [RH = 31%]
Pressure (altimeter):29.95 inches Hg (1014.3 mb)
Winds:from the S (190 degrees) at 10 MPH (9 knots; 4.6 m/s)
Visibility:10 or more sm (16+ km)
Ceiling:at least 12,000 feet AGL
Clouds: scattered clouds at 10000 feet AGL
QC Flag:automated observation with no human augmentation
Text:KJWY 032335Z AUTO 16008KT 10SM SCT100 37/18 A2995 RMK AO2 T03700175
Temperature: 37.0°C ( 99°F)
Dewpoint: 17.5°C ( 64°F) [RH = 32%]
Pressure (altimeter):29.95 inches Hg (1014.3 mb)
Winds:from the SSE (160 degrees) at 9 MPH (8 knots; 4.1 m/s)
Visibility:10 or more sm (16+ km)
Ceiling:at least 12,000 feet AGL
Clouds: scattered clouds at 10000 feet AGL
QC Flag:automated observation with no human augmentation
Text:KJWY 032315Z AUTO 19011KT 10SM SCT080 37/18 A2995 RMK AO2 T03710178
Temperature: 37.1°C ( 99°F)
Dewpoint: 17.8°C ( 64°F) [RH = 32%]
Pressure (altimeter):29.95 inches Hg (1014.3 mb)
Winds:from the S (190 degrees) at 13 MPH (11 knots; 5.7 m/s)
Visibility:10 or more sm (16+ km)
Ceiling:at least 12,000 feet AGL
Clouds: scattered clouds at 8000 feet AGL
QC Flag:automated observation with no human augmentation
Text:KJWY 032255Z AUTO 19006G14KT 10SM SCT080 38/18 A2995 RMK AO2 T03830180
Temperature: 38.3°C (101°F)
Dewpoint: 18.0°C ( 64°F) [RH = 31%]
Pressure (altimeter):29.95 inches Hg (1014.3 mb)
Winds:from the S (190 degrees) at 7 MPH (6 knots; 3.1 m/s) gusting to 16 MPH (14 knots; 7.2 m/s)
Visibility:10 or more sm (16+ km)
Ceiling:at least 12,000 feet AGL
Clouds: scattered clouds at 8000 feet AGL
QC Flag:automated observation with no human augmentation
Text:KJWY 032235Z AUTO 16009G15KT 10SM SCT080 38/18 A2995 RMK AO2 T03810180
Temperature: 38.1°C (101°F)
Dewpoint: 18.0°C ( 64°F) [RH = 31%]
Pressure (altimeter):29.95 inches Hg (1014.3 mb)
Winds:from the SSE (160 degrees) at 10 MPH (9 knots; 4.6 m/s) gusting to 17 MPH (15 knots; 7.7 m/s)
Visibility:10 or more sm (16+ km)
Ceiling:at least 12,000 feet AGL
Clouds: scattered clouds at 8000 feet AGL
QC Flag:automated observation with no human augmentation
Text:KJWY 032215Z AUTO 21005KT 10SM CLR 38/18 A2995 RMK AO2 T03820179
Temperature: 38.2°C (101°F)
Dewpoint: 17.9°C ( 64°F) [RH = 31%]
Pressure (altimeter):29.95 inches Hg (1014.3 mb)
Winds:from the SSW (210 degrees) at 6 MPH (5 knots; 2.6 m/s)
Visibility:10 or more sm (16+ km)
Ceiling:at least 12,000 feet AGL
Clouds:sky clear below 12,000 feet AGL
QC Flag:automated observation with no human augmentation
Text:KJWY 032155Z AUTO 17009G15KT 10SM SCT075 39/18 A2996 RMK AO2 T03870182
Temperature: 38.7°C (102°F)
Dewpoint: 18.2°C ( 65°F) [RH = 30%]
Pressure (altimeter):29.96 inches Hg (1014.6 mb)
Winds:from the S (170 degrees) at 10 MPH (9 knots; 4.6 m/s) gusting to 17 MPH (15 knots; 7.7 m/s)
Visibility:10 or more sm (16+ km)
Ceiling:at least 12,000 feet AGL
Clouds: scattered clouds at 7500 feet AGL
QC Flag:automated observation with no human augmentation
Text:KJWY 032135Z AUTO 20009G15KT 10SM SCT075 38/18 A2996 RMK AO2 T03770184
Temperature: 37.7°C (100°F)
Dewpoint: 18.4°C ( 65°F) [RH = 32%]
Pressure (altimeter):29.96 inches Hg (1014.6 mb)
Winds:from the SSW (200 degrees) at 10 MPH (9 knots; 4.6 m/s) gusting to 17 MPH (15 knots; 7.7 m/s)
Visibility:10 or more sm (16+ km)
Ceiling:at least 12,000 feet AGL
Clouds: scattered clouds at 7500 feet AGL
QC Flag:automated observation with no human augmentation
Text:KJWY 032115Z AUTO 15009G16KT 10SM SCT075 38/19 A2996 RMK AO2 T03840186
Temperature: 38.4°C (101°F)
Dewpoint: 18.6°C ( 65°F) [RH = 32%]
Pressure (altimeter):29.96 inches Hg (1014.6 mb)
Winds:from the SSE (150 degrees) at 10 MPH (9 knots; 4.6 m/s) gusting to 18 MPH (16 knots; 8.2 m/s)
Visibility:10 or more sm (16+ km)
Ceiling:at least 12,000 feet AGL
Clouds: scattered clouds at 7500 feet AGL
QC Flag:automated observation with no human augmentation
Text:KJWY 032055Z AUTO 17010KT 150V210 10SM SCT080 37/19 A2996 RMK AO2 T03700185
Temperature: 37.0°C ( 99°F)
Dewpoint: 18.5°C ( 65°F) [RH = 34%]
Pressure (altimeter):29.96 inches Hg (1014.6 mb)
Winds:from the S (170 degrees) at 12 MPH (10 knots; 5.1 m/s)
Visibility:10 or more sm (16+ km)
Ceiling:at least 12,000 feet AGL
Clouds: scattered clouds at 8000 feet AGL
QC Flag:automated observation with no human augmentation
Text:KJWY 032035Z AUTO 17010G15KT 10SM CLR 38/19 A2996 RMK AO2 T03750189
Temperature: 37.5°C (100°F)
Dewpoint: 18.9°C ( 66°F) [RH = 34%]
Pressure (altimeter):29.96 inches Hg (1014.6 mb)
Winds:from the S (170 degrees) at 12 MPH (10 knots; 5.1 m/s) gusting to 17 MPH (15 knots; 7.7 m/s)
Visibility:10 or more sm (16+ km)
Ceiling:at least 12,000 feet AGL
Clouds:sky clear below 12,000 feet AGL
QC Flag:automated observation with no human augmentation
Text:KJWY 032015Z AUTO 19008G18KT 10SM SCT065 37/19 A2998 RMK AO2 T03730189
Temperature: 37.3°C ( 99°F)
Dewpoint: 18.9°C ( 66°F) [RH = 34%]
Pressure (altimeter):29.98 inches Hg (1015.3 mb)
Winds:from the S (190 degrees) at 9 MPH (8 knots; 4.1 m/s) gusting to 21 MPH (18 knots; 9.3 m/s)
Visibility:10 or more sm (16+ km)
Ceiling:at least 12,000 feet AGL
Clouds: scattered clouds at 6500 feet AGL
QC Flag:automated observation with no human augmentation
Text:KJWY 031955Z AUTO 20009G19KT 10SM SCT065 SCT100 38/19 A2998 RMK AO2 T03780193
Temperature: 37.8°C (100°F)
Dewpoint: 19.3°C ( 67°F) [RH = 34%]
Pressure (altimeter):29.98 inches Hg (1015.3 mb)
Winds:from the SSW (200 degrees) at 10 MPH (9 knots; 4.6 m/s) gusting to 22 MPH (19 knots; 9.8 m/s)
Visibility:10 or more sm (16+ km)
Ceiling:at least 12,000 feet AGL
Clouds: scattered clouds at 6500 feet AGL, scattered clouds at 10000 feet AGL
QC Flag:automated observation with no human augmentation
Text:KJWY 031935Z AUTO 17010G17KT 10SM SCT065 SCT100 SCT110 37/19 A2998 RMK AO2 T03730192
Temperature: 37.3°C ( 99°F)
Dewpoint: 19.2°C ( 67°F) [RH = 35%]
Pressure (altimeter):29.98 inches Hg (1015.3 mb)
Winds:from the S (170 degrees) at 12 MPH (10 knots; 5.1 m/s) gusting to 20 MPH (17 knots; 8.7 m/s)
Visibility:10 or more sm (16+ km)
Ceiling:at least 12,000 feet AGL
Clouds: scattered clouds at 6500 feet AGL, scattered clouds at 10000 feet AGL, scattered clouds at 11000 feet AGL
QC Flag:automated observation with no human augmentation
Text:KJWY 031915Z AUTO 17008KT 120V210 10SM SCT065 SCT100 37/20 A2999 RMK AO2 T03710197
Temperature: 37.1°C ( 99°F)
Dewpoint: 19.7°C ( 67°F) [RH = 36%]
Pressure (altimeter):29.99 inches Hg (1015.7 mb)
Winds:from the S (170 degrees) at 9 MPH (8 knots; 4.1 m/s)
Visibility:10 or more sm (16+ km)
Ceiling:at least 12,000 feet AGL
Clouds: scattered clouds at 6500 feet AGL, scattered clouds at 10000 feet AGL
QC Flag:automated observation with no human augmentation
Text:KJWY 031855Z AUTO 18010G16KT 170V230 10SM SCT065 SCT110 37/20 A3000 RMK AO2 T03670196
Temperature: 36.7°C ( 98°F)
Dewpoint: 19.6°C ( 67°F) [RH = 37%]
Pressure (altimeter):30.00 inches Hg (1016.0 mb)
Winds:from the S (180 degrees) at 12 MPH (10 knots; 5.1 m/s) gusting to 18 MPH (16 knots; 8.2 m/s)
Visibility:10 or more sm (16+ km)
Ceiling:at least 12,000 feet AGL
Clouds: scattered clouds at 6500 feet AGL, scattered clouds at 11000 feet AGL
QC Flag:automated observation with no human augmentation
Text:KJWY 031835Z AUTO 18008G16KT 10SM SCT100 37/20 A3001 RMK AO2 T03650197
Temperature: 36.5°C ( 98°F)
Dewpoint: 19.7°C ( 67°F) [RH = 38%]
Pressure (altimeter):30.01 inches Hg (1016.3 mb)
Winds:from the S (180 degrees) at 9 MPH (8 knots; 4.1 m/s) gusting to 18 MPH (16 knots; 8.2 m/s)
Visibility:10 or more sm (16+ km)
Ceiling:at least 12,000 feet AGL
Clouds: scattered clouds at 10000 feet AGL
QC Flag:automated observation with no human augmentation
Text:KJWY 031815Z AUTO 17008KT 10SM SCT050 SCT070 OVC100 36/21 A3002 RMK AO2 T03590206
Temperature: 35.9°C ( 97°F)
Dewpoint: 20.6°C ( 69°F) [RH = 41%]
Pressure (altimeter):30.02 inches Hg (1016.7 mb)
Winds:from the S (170 degrees) at 9 MPH (8 knots; 4.1 m/s)
Visibility:10 or more sm (16+ km)
Ceiling:10000 feet AGL
Clouds: scattered clouds at 5000 feet AGL, scattered clouds at 7000 feet AGL, overcast cloud deck at 10000 feet AGL
QC Flag:automated observation with no human augmentation
Text:KJWY 031755Z AUTO 17008KT 10SM SCT050 SCT070 BKN110 35/21 A3003 RMK AO2 T03480208 10357 20256
Temperature: 34.8°C ( 95°F)
Dewpoint: 20.8°C ( 69°F) [RH = 44%]
Pressure (altimeter):30.03 inches Hg (1017.0 mb)
Winds:from the S (170 degrees) at 9 MPH (8 knots; 4.1 m/s)
Visibility:10 or more sm (16+ km)
Ceiling:11000 feet AGL
Clouds: scattered clouds at 5000 feet AGL, scattered clouds at 7000 feet AGL, broken clouds at 11000 feet AGL
QC Flag:automated observation with no human augmentation
Text:KJWY 031735Z AUTO 20009G14KT 10SM SCT050 SCT095 35/21 A3003 RMK AO2 T03470205
Temperature: 34.7°C ( 94°F)
Dewpoint: 20.5°C ( 69°F) [RH = 44%]
Pressure (altimeter):30.03 inches Hg (1017.0 mb)
Winds:from the SSW (200 degrees) at 10 MPH (9 knots; 4.6 m/s) gusting to 16 MPH (14 knots; 7.2 m/s)
Visibility:10 or more sm (16+ km)
Ceiling:at least 12,000 feet AGL
Clouds: scattered clouds at 5000 feet AGL, scattered clouds at 9500 feet AGL
QC Flag:automated observation with no human augmentation
Text:KJWY 031715Z AUTO 21008KT 140V230 10SM SCT048 SCT095 35/21 A3003 RMK AO2 T03450211
Temperature: 34.5°C ( 94°F)
Dewpoint: 21.1°C ( 70°F) [RH = 46%]
Pressure (altimeter):30.03 inches Hg (1017.0 mb)
Winds:from the SSW (210 degrees) at 9 MPH (8 knots; 4.1 m/s)
Visibility:10 or more sm (16+ km)
Ceiling:at least 12,000 feet AGL
Clouds: scattered clouds at 4800 feet AGL, scattered clouds at 9500 feet AGL
QC Flag:automated observation with no human augmentation
Text:KJWY 031655Z AUTO 18006KT 10SM BKN095 35/22 A3004 RMK AO2 T03450216
Temperature: 34.5°C ( 94°F)
Dewpoint: 21.6°C ( 71°F) [RH = 47%]
Pressure (altimeter):30.04 inches Hg (1017.4 mb)
Winds:from the S (180 degrees) at 7 MPH (6 knots; 3.1 m/s)
Visibility:10 or more sm (16+ km)
Ceiling:9500 feet AGL
Clouds: broken clouds at 9500 feet AGL
QC Flag:automated observation with no human augmentation
Text:KJWY 031635Z AUTO 19006KT 10SM BKN095 33/22 A3004 RMK AO2 T03280218
Temperature: 32.8°C ( 91°F)
Dewpoint: 21.8°C ( 71°F) [RH = 53%]
Pressure (altimeter):30.04 inches Hg (1017.4 mb)
Winds:from the S (190 degrees) at 7 MPH (6 knots; 3.1 m/s)
Visibility:10 or more sm (16+ km)
Ceiling:9500 feet AGL
Clouds: broken clouds at 9500 feet AGL
QC Flag:automated observation with no human augmentation
Text:KJWY 031615Z AUTO 19005KT 10SM BKN095 33/22 A3004 RMK AO2 T03260221
Temperature: 32.6°C ( 91°F)
Dewpoint: 22.1°C ( 72°F) [RH = 54%]
Pressure (altimeter):30.04 inches Hg (1017.4 mb)
Winds:from the S (190 degrees) at 6 MPH (5 knots; 2.6 m/s)
Visibility:10 or more sm (16+ km)
Ceiling:9500 feet AGL
Clouds: broken clouds at 9500 feet AGL
QC Flag:automated observation with no human augmentation
Text:KJWY 031555Z AUTO 17007KT 10SM SCT095 33/22 A3004 RMK AO2 T03270223
Temperature: 32.7°C ( 91°F)
Dewpoint: 22.3°C ( 72°F) [RH = 54%]
Pressure (altimeter):30.04 inches Hg (1017.4 mb)
Winds:from the S (170 degrees) at 8 MPH (7 knots; 3.6 m/s)
Visibility:10 or more sm (16+ km)
Ceiling:at least 12,000 feet AGL
Clouds: scattered clouds at 9500 feet AGL
QC Flag:automated observation with no human augmentation
Text:KJWY 031535Z AUTO 18007KT 10SM SCT095 32/22 A3004 RMK AO2 T03160224
Temperature: 31.6°C ( 89°F)
Dewpoint: 22.4°C ( 72°F) [RH = 58%]
Pressure (altimeter):30.04 inches Hg (1017.4 mb)
Winds:from the S (180 degrees) at 8 MPH (7 knots; 3.6 m/s)
Visibility:10 or more sm (16+ km)
Ceiling:at least 12,000 feet AGL
Clouds: scattered clouds at 9500 feet AGL
QC Flag:automated observation with no human augmentation
Text:KJWY 031515Z AUTO 22009G15KT 10SM CLR 32/23 A3003 RMK AO2 T03150227
Temperature: 31.5°C ( 89°F)
Dewpoint: 22.7°C ( 73°F) [RH = 60%]
Pressure (altimeter):30.03 inches Hg (1017.0 mb)
Winds:from the SW (220 degrees) at 10 MPH (9 knots; 4.6 m/s) gusting to 17 MPH (15 knots; 7.7 m/s)
Visibility:10 or more sm (16+ km)
Ceiling:at least 12,000 feet AGL
Clouds:sky clear below 12,000 feet AGL
QC Flag:automated observation with no human augmentation
Text:KJWY 031455Z AUTO 22009G17KT 10SM CLR 31/23 A3003 RMK AO2 T03050225
Temperature: 30.5°C ( 87°F)
Dewpoint: 22.5°C ( 72°F) [RH = 62%]
Pressure (altimeter):30.03 inches Hg (1017.0 mb)
Winds:from the SW (220 degrees) at 10 MPH (9 knots; 4.6 m/s) gusting to 20 MPH (17 knots; 8.7 m/s)
Visibility:10 or more sm (16+ km)
Ceiling:at least 12,000 feet AGL
Clouds:sky clear below 12,000 feet AGL
QC Flag:automated observation with no human augmentation
Text:KJWY 031435Z AUTO 20011G15KT 10SM SCT090 30/23 A3003 RMK AO2 T03020228
Temperature: 30.2°C ( 86°F)
Dewpoint: 22.8°C ( 73°F) [RH = 65%]
Pressure (altimeter):30.03 inches Hg (1017.0 mb)
Winds:from the SSW (200 degrees) at 13 MPH (11 knots; 5.7 m/s) gusting to 17 MPH (15 knots; 7.7 m/s)
Visibility:10 or more sm (16+ km)
Ceiling:at least 12,000 feet AGL
Clouds: scattered clouds at 9000 feet AGL
QC Flag:automated observation with no human augmentation
Text:KJWY 031415Z AUTO 21012G16KT 10SM BKN090 BKN110 30/23 A3003 RMK AO2 T02970229
Temperature: 29.7°C ( 85°F)
Dewpoint: 22.9°C ( 73°F) [RH = 67%]
Pressure (altimeter):30.03 inches Hg (1017.0 mb)
Winds:from the SSW (210 degrees) at 14 MPH (12 knots; 6.2 m/s) gusting to 18 MPH (16 knots; 8.2 m/s)
Visibility:10 or more sm (16+ km)
Ceiling:9000 feet AGL
Clouds: broken clouds at 9000 feet AGL, broken clouds at 11000 feet AGL
QC Flag:automated observation with no human augmentation
Text:KJWY 031355Z AUTO 22010G16KT 10SM SCT090 SCT110 29/23 A3003 RMK AO2 T02900230
Temperature: 29.0°C ( 84°F)
Dewpoint: 23.0°C ( 73°F) [RH = 70%]
Pressure (altimeter):30.03 inches Hg (1017.0 mb)
Winds:from the SW (220 degrees) at 12 MPH (10 knots; 5.1 m/s) gusting to 18 MPH (16 knots; 8.2 m/s)
Visibility:10 or more sm (16+ km)
Ceiling:at least 12,000 feet AGL
Clouds: scattered clouds at 9000 feet AGL, scattered clouds at 11000 feet AGL
QC Flag:automated observation with no human augmentation
Text:KJWY 031335Z AUTO 20011KT 10SM SCT110 28/23 A3003 RMK AO2 T02810230
Temperature: 28.1°C ( 83°F)
Dewpoint: 23.0°C ( 73°F) [RH = 74%]
Pressure (altimeter):30.03 inches Hg (1017.0 mb)
Winds:from the SSW (200 degrees) at 13 MPH (11 knots; 5.7 m/s)
Visibility:10 or more sm (16+ km)
Ceiling:at least 12,000 feet AGL
Clouds: scattered clouds at 11000 feet AGL
QC Flag:automated observation with no human augmentation
Text:KJWY 031315Z AUTO 19010KT 10SM SCT110 28/23 A3002 RMK AO2 T02750229
Temperature: 27.5°C ( 82°F)
Dewpoint: 22.9°C ( 73°F) [RH = 76%]
Pressure (altimeter):30.02 inches Hg (1016.7 mb)
Winds:from the S (190 degrees) at 12 MPH (10 knots; 5.1 m/s)
Visibility:10 or more sm (16+ km)
Ceiling:at least 12,000 feet AGL
Clouds: scattered clouds at 11000 feet AGL
QC Flag:automated observation with no human augmentation
Text:KJWY 031255Z AUTO 20007KT 10SM SCT120 27/23 A3002 RMK AO2 T02700230
Temperature: 27.0°C ( 81°F)
Dewpoint: 23.0°C ( 73°F) [RH = 79%]
Pressure (altimeter):30.02 inches Hg (1016.7 mb)
Winds:from the SSW (200 degrees) at 8 MPH (7 knots; 3.6 m/s)
Visibility:10 or more sm (16+ km)
Ceiling:at least 12,000 feet AGL
Clouds: scattered clouds at 12000 feet AGL
QC Flag:automated observation with no human augmentation